createdAt,value
2018-12-26T00:03:37.682Z,17.40
2018-12-26T00:06:41.356Z,18.33
2018-12-26T00:09:45.098Z,16.93
2018-12-26T00:12:49.053Z,19.77
2018-12-26T00:15:53.159Z,20.63
2018-12-26T00:18:57.770Z,16.17
2018-12-26T00:25:24.129Z,11.87
2018-12-26T00:28:28.668Z,12.10
2018-12-26T00:31:52.284Z,12.50
2018-12-26T00:34:56.424Z,15.43
2018-12-26T00:38:00.584Z,10.90
2018-12-26T00:41:04.619Z,11.70
2018-12-26T00:44:08.624Z,9.00
2018-12-26T00:47:12.909Z,8.03
2018-12-26T00:53:25.898Z,8.23
2018-12-26T00:56:29.535Z,10.37
2018-12-26T00:59:52.666Z,8.47
2018-12-26T01:02:56.837Z,11.03
2018-12-26T01:06:00.940Z,8.60
2018-12-26T01:09:44.614Z,8.03
2018-12-26T01:12:48.557Z,6.97
2018-12-26T01:15:52.521Z,8.03
2018-12-26T01:18:56.336Z,6.00
2018-12-26T01:22:00.017Z,6.33
2018-12-26T01:25:04.020Z,5.37
2018-12-26T01:28:08.009Z,6.63
2018-12-26T01:31:12.294Z,8.47
2018-12-26T01:34:16.192Z,6.73
2018-12-26T01:37:20.595Z,5.47
2018-12-26T01:40:24.897Z,6.60
2018-12-26T01:43:28.990Z,5.43
2018-12-26T01:46:32.774Z,4.70
2018-12-26T01:49:36.665Z,4.40
2018-12-26T01:52:40.584Z,6.67
2018-12-26T01:55:44.285Z,4.97
2018-12-26T01:58:48.563Z,3.87
2018-12-26T02:01:52.601Z,4.27
2018-12-26T02:04:56.258Z,3.77
2018-12-26T02:11:10.692Z,3.10
2018-12-26T02:14:14.989Z,3.73
2018-12-26T02:17:18.678Z,3.90
2018-12-26T02:23:45.295Z,5.37
2018-12-26T02:26:49.195Z,4.30
2018-12-26T02:29:53.084Z,6.60
2018-12-26T02:32:57.082Z,3.70
2018-12-26T02:36:20.721Z,3.90
2018-12-26T02:39:24.333Z,3.73
2018-12-26T02:42:28.724Z,5.73
2018-12-26T02:45:51.577Z,9.57
2018-12-26T02:48:55.461Z,4.03
2018-12-26T02:52:18.701Z,4.23
2018-12-26T02:55:41.594Z,4.90
2018-12-26T02:58:45.588Z,4.00
2018-12-26T03:01:49.584Z,4.80
2018-12-26T03:04:53.214Z,5.60
2018-12-26T03:07:57.170Z,2.80
2018-12-26T03:11:00.765Z,2.40
2018-12-26T03:14:04.648Z,3.40
2018-12-26T03:17:08.272Z,4.17
2018-12-26T03:23:21.653Z,4.63
2018-12-26T03:26:25.628Z,6.43
2018-12-26T03:29:29.260Z,3.63
2018-12-26T03:32:32.880Z,5.73
2018-12-26T03:35:36.923Z,6.07
2018-12-26T03:38:40.859Z,9.90
2018-12-26T03:41:44.579Z,3.17
2018-12-26T03:45:28.492Z,2.97
2018-12-26T03:49:12.195Z,5.43
2018-12-26T03:52:16.416Z,2.97
2018-12-26T03:55:20.653Z,8.60
2018-12-26T03:58:24.350Z,4.10
2018-12-26T04:01:28.052Z,5.83
2018-12-26T04:04:32.002Z,10.63
2018-12-26T04:07:54.850Z,6.00
2018-12-26T04:10:58.496Z,5.87
2018-12-26T04:14:02.379Z,3.93
2018-12-26T04:17:06.386Z,3.30
2018-12-26T04:20:10.280Z,4.93
2018-12-26T04:23:33.126Z,6.53
2018-12-26T04:26:37.326Z,4.27
2018-12-26T04:29:41.499Z,2.53
2018-12-26T04:33:04.362Z,2.53
2018-12-26T04:36:08.330Z,3.87
2018-12-26T04:39:12.319Z,3.43
2018-12-26T04:42:16.638Z,1.83
2018-12-26T04:45:20.547Z,2.60
2018-12-26T04:48:24.825Z,3.53
2018-12-26T04:54:38.135Z,3.13
2018-12-26T04:57:42.432Z,2.20
2018-12-26T05:00:46.837Z,5.83
2018-12-26T05:03:50.520Z,6.73
2018-12-26T05:06:54.142Z,2.90
2018-12-26T05:09:58.092Z,7.57
2018-12-26T05:13:21.226Z,6.53
2018-12-26T05:16:25.541Z,1.50
2018-12-26T05:19:29.135Z,5.10
2018-12-26T05:22:33.526Z,1.87
2018-12-26T05:25:37.856Z,3.20
2018-12-26T05:28:42.037Z,5.47
2018-12-26T05:31:46.135Z,3.10
2018-12-26T05:34:50.339Z,2.63
2018-12-26T05:37:54.332Z,8.90
2018-12-26T05:40:58.888Z,3.63
2018-12-26T05:44:02.558Z,33.30
2018-12-26T05:47:06.231Z,20.17
2018-12-26T05:50:10.339Z,15.40
2018-12-26T05:56:43.201Z,16.80
2018-12-26T05:59:47.141Z,14.83
2018-12-26T06:02:51.163Z,12.17
2018-12-26T06:05:54.779Z,13.60
2018-12-26T06:08:59.047Z,13.90
2018-12-26T06:15:12.211Z,9.67
2018-12-26T06:18:16.464Z,9.33
2018-12-26T06:21:20.472Z,12.13
2018-12-26T06:24:24.099Z,6.80
2018-12-26T06:27:27.837Z,11.37
2018-12-26T06:30:31.440Z,11.80
2018-12-26T06:33:35.316Z,7.17
2018-12-26T06:40:01.662Z,8.00
2018-12-26T06:43:05.323Z,7.03
2018-12-26T06:46:09.537Z,5.60
2018-12-26T06:49:13.634Z,6.00
2018-12-26T06:52:36.715Z,5.77
2018-12-26T06:55:41.769Z,6.17
2018-12-26T06:58:46.796Z,5.33
2018-12-26T07:01:50.384Z,4.70
2018-12-26T07:04:54.339Z,5.07
2018-12-26T07:07:57.974Z,4.93
2018-12-26T07:11:01.600Z,4.07
2018-12-26T07:14:05.319Z,5.50
2018-12-26T07:17:08.935Z,17.13
2018-12-26T07:20:12.912Z,4.20
2018-12-26T07:23:24.175Z,5.17
2018-12-26T07:26:28.580Z,4.77
2018-12-26T07:29:32.337Z,4.20
2018-12-26T07:32:36.042Z,6.10
2018-12-26T07:35:39.661Z,8.57
2018-12-26T07:38:43.287Z,4.87
2018-12-26T07:41:47.210Z,5.97
2018-12-26T07:44:50.828Z,5.77
2018-12-26T07:47:54.807Z,3.93
2018-12-26T07:54:08.530Z,6.23
2018-12-26T07:57:12.248Z,6.23
2018-12-26T08:00:16.334Z,4.93
2018-12-26T08:03:20.333Z,6.07
2018-12-26T08:06:24.411Z,3.27
2018-12-26T08:09:28.385Z,87.70
2018-12-26T08:12:32.106Z,132.53
2018-12-26T08:15:36.132Z,174.70
2018-12-26T08:18:40.025Z,104.50
2018-12-26T08:22:03.174Z,86.10
2018-12-26T08:25:06.814Z,75.37
2018-12-26T08:28:11.115Z,59.77
2018-12-26T08:31:15.111Z,50.77
2018-12-26T08:34:19.109Z,46.37
2018-12-26T08:37:22.789Z,42.40
2018-12-26T08:40:26.431Z,34.47
2018-12-26T08:43:30.094Z,33.03
2018-12-26T08:46:53.048Z,38.10
2018-12-26T08:50:16.235Z,31.77
2018-12-26T08:53:20.778Z,32.03
2018-12-26T08:56:24.749Z,27.40
2018-12-26T08:59:28.725Z,25.50
2018-12-26T09:02:32.843Z,23.57
2018-12-26T09:05:37.147Z,24.60
2018-12-26T09:08:41.127Z,23.23
2018-12-26T09:12:03.827Z,26.50
2018-12-26T09:18:30.562Z,19.07
2018-12-26T09:21:34.671Z,15.87
2018-12-26T09:24:38.743Z,13.67
2018-12-26T09:27:42.639Z,12.70
2018-12-26T09:30:46.778Z,14.17
2018-12-26T09:33:50.932Z,12.00
2018-12-26T09:36:54.715Z,12.37
2018-12-26T09:39:58.636Z,10.97
2018-12-26T09:43:02.938Z,13.17
2018-12-26T09:46:06.934Z,11.13
2018-12-26T09:49:30.369Z,10.23
2018-12-26T09:52:34.078Z,13.27
2018-12-26T09:55:38.160Z,16.07
2018-12-26T10:01:50.980Z,9.90
2018-12-26T10:04:55.752Z,10.90
2018-12-26T10:08:19.110Z,16.77
2018-12-26T10:11:23.754Z,5.37
2018-12-26T10:14:46.916Z,5.87
2018-12-26T10:17:51.384Z,7.27
2018-12-26T10:20:56.084Z,2.80
2018-12-26T10:24:00.092Z,6.77
2018-12-26T10:27:04.918Z,6.70
2018-12-26T10:30:28.277Z,4.67
2018-12-26T10:33:32.375Z,7.80
2018-12-26T10:36:38.020Z,8.17
2018-12-26T10:39:42.972Z,14.57
2018-12-26T10:42:46.802Z,7.83
2018-12-26T10:45:50.761Z,6.63
2018-12-26T10:48:55.283Z,4.90
2018-12-26T10:51:59.086Z,8.50
2018-12-26T10:55:02.775Z,7.27
2018-12-26T10:58:08.207Z,7.10
2018-12-26T11:01:12.408Z,8.23
2018-12-26T11:04:16.606Z,5.70
2018-12-26T11:07:20.605Z,6.83
2018-12-26T11:10:24.819Z,5.57
2018-12-26T11:13:31.956Z,4.60
2018-12-26T11:16:36.382Z,5.27
2018-12-26T11:19:41.068Z,4.77
2018-12-26T11:22:45.050Z,3.93
2018-12-26T11:25:49.351Z,2.63
2018-12-26T11:28:54.082Z,4.03
2018-12-26T11:31:58.008Z,6.17
2018-12-26T11:35:02.058Z,5.23
2018-12-26T11:38:06.602Z,6.33
2018-12-26T11:41:10.361Z,3.87
2018-12-26T11:44:14.418Z,7.17
2018-12-26T11:47:19.317Z,6.00
2018-12-26T11:50:22.960Z,6.80
2018-12-26T11:53:46.380Z,4.73
2018-12-26T11:56:51.217Z,3.50
2018-12-26T12:06:16.671Z,6.00
2018-12-26T12:12:43.514Z,3.90
2018-12-26T12:15:47.572Z,6.60
2018-12-26T12:19:10.770Z,7.33
2018-12-26T12:22:15.135Z,18.20
2018-12-26T12:25:19.089Z,12.60
2018-12-26T12:28:42.191Z,9.87
2018-12-26T12:31:46.406Z,12.73
2018-12-26T12:34:50.615Z,9.43
2018-12-26T12:37:55.304Z,6.33
2018-12-26T12:44:22.636Z,5.17
2018-12-26T12:47:26.721Z,5.70
2018-12-26T12:50:30.599Z,3.60
2018-12-26T12:53:34.374Z,6.07
2018-12-26T12:56:57.634Z,3.50
2018-12-26T13:00:01.952Z,6.37
2018-12-26T13:03:06.151Z,7.57
2018-12-26T13:06:10.247Z,5.83
2018-12-26T13:09:14.553Z,3.50
2018-12-26T13:12:18.962Z,5.40
2018-12-26T13:15:22.958Z,6.67
2018-12-26T13:18:27.254Z,23.13
2018-12-26T13:21:31.579Z,8.40
2018-12-26T13:24:35.548Z,6.40
2018-12-26T13:27:39.687Z,13.90
2018-12-26T13:30:43.899Z,11.93
2018-12-26T13:33:48.325Z,10.80
2018-12-26T13:36:52.350Z,8.00
2018-12-26T13:39:57.028Z,13.17
2018-12-26T13:43:00.756Z,9.90
2018-12-26T13:46:23.884Z,8.47
2018-12-26T13:49:27.793Z,5.40
2018-12-26T13:52:31.555Z,6.93
2018-12-26T13:59:17.948Z,8.03
2018-12-26T14:02:22.533Z,6.57
2018-12-26T14:05:27.446Z,7.43
2018-12-26T14:08:31.575Z,13.10
2018-12-26T14:11:55.021Z,10.73
2018-12-26T14:14:59.307Z,6.70
2018-12-26T14:18:03.625Z,8.40
2018-12-26T14:21:07.295Z,10.47
2018-12-26T14:24:30.178Z,9.97
2018-12-26T14:27:34.168Z,6.47
2018-12-26T14:34:08.832Z,9.00
2018-12-26T14:37:12.814Z,8.83
2018-12-26T14:40:16.947Z,9.03
2018-12-26T14:43:21.275Z,11.07
2018-12-26T14:46:25.069Z,6.37
2018-12-26T14:49:48.557Z,5.67
2018-12-26T14:53:11.806Z,11.17
2018-12-26T14:56:15.776Z,7.47
2018-12-26T14:59:32.105Z,11.13
2018-12-26T15:02:35.841Z,5.70
2018-12-26T15:05:39.493Z,8.87
2018-12-26T15:08:43.835Z,8.37
2018-12-26T15:11:48.490Z,7.53
2018-12-26T15:15:11.682Z,8.63
2018-12-26T15:18:15.391Z,5.47
2018-12-26T15:21:38.722Z,6.97
2018-12-26T15:25:01.581Z,8.37
2018-12-26T15:28:05.644Z,5.40
2018-12-26T15:31:09.827Z,9.10
2018-12-26T15:34:32.762Z,7.23
2018-12-26T15:37:36.667Z,6.73
2018-12-26T15:40:41.437Z,6.57
2018-12-26T15:43:45.885Z,6.00
2018-12-26T15:47:09.100Z,9.03
2018-12-26T15:50:13.094Z,9.03
2018-12-26T15:53:16.990Z,7.97
2018-12-26T15:56:39.904Z,6.20
2018-12-26T15:59:43.630Z,6.53
2018-12-26T16:02:47.907Z,7.30
2018-12-26T16:05:51.596Z,11.40
2018-12-26T16:08:55.288Z,8.83
2018-12-26T16:11:59.377Z,7.03
2018-12-26T16:15:22.061Z,8.13
2018-12-26T16:18:26.019Z,7.93
2018-12-26T16:21:29.693Z,7.20
2018-12-26T16:24:33.670Z,6.23
2018-12-26T16:27:37.820Z,9.03
2018-12-26T16:30:46.077Z,8.33
2018-12-26T16:33:46.922Z,8.40
2018-12-26T16:36:50.882Z,10.00
2018-12-26T16:39:54.843Z,8.40
2018-12-26T16:42:58.713Z,9.97
2018-12-26T16:46:21.625Z,8.17
2018-12-26T16:49:25.460Z,9.87
2018-12-26T16:52:29.614Z,10.20
2018-12-26T16:55:52.820Z,9.53
2018-12-26T16:58:56.944Z,11.00
2018-12-26T17:02:01.256Z,10.67
2018-12-26T17:05:24.275Z,13.87
2018-12-26T17:08:28.064Z,11.00
2018-12-26T17:11:33.366Z,11.70
2018-12-26T17:14:37.371Z,12.33
2018-12-26T17:17:41.378Z,13.23
2018-12-26T17:20:45.597Z,31.87
2018-12-26T17:27:19.829Z,37.93
2018-12-26T17:30:24.419Z,24.13
2018-12-26T17:33:48.017Z,24.93
2018-12-26T17:36:52.022Z,23.90
2018-12-26T17:39:55.777Z,17.23
2018-12-26T17:43:19.001Z,16.70
2018-12-26T17:46:24.796Z,14.63
2018-12-26T17:49:47.749Z,15.97
2018-12-26T17:52:51.794Z,15.40
2018-12-26T17:56:34.029Z,17.03
2018-12-26T17:59:49.733Z,12.20
2018-12-26T18:02:53.727Z,17.03
2018-12-26T18:06:16.607Z,10.67
2018-12-26T18:09:44.290Z,14.00
2018-12-26T18:12:48.250Z,10.03
2018-12-26T18:15:52.379Z,11.87
2018-12-26T18:19:15.525Z,12.13
2018-12-26T18:22:19.898Z,7.80
2018-12-26T18:25:23.777Z,12.90
2018-12-26T18:28:46.759Z,9.27
2018-12-26T18:35:42.474Z,8.73
2018-12-26T18:38:46.481Z,8.30
2018-12-26T18:41:50.276Z,9.10
2018-12-26T18:44:54.608Z,9.33
2018-12-26T18:47:58.393Z,12.53
2018-12-26T18:51:21.392Z,8.80
2018-12-26T18:54:25.497Z,8.27
2018-12-26T18:57:29.185Z,22.50
2018-12-26T19:00:33.341Z,26.47
2018-12-26T19:03:37.747Z,21.37
2018-12-26T19:06:42.159Z,18.43
2018-12-26T19:09:46.436Z,18.80
2018-12-26T19:12:50.208Z,16.67
2018-12-26T19:16:13.223Z,15.33
2018-12-26T19:19:17.055Z,12.80
2018-12-26T19:22:23.937Z,11.90
2018-12-26T19:25:28.159Z,11.13
2018-12-26T19:28:31.915Z,10.57
2018-12-26T19:31:39.726Z,11.10
2018-12-26T19:34:42.237Z,8.93
2018-12-26T19:37:46.333Z,9.77
2018-12-26T19:40:50.495Z,8.53
2018-12-26T19:43:55.161Z,16.47
2018-12-26T19:46:59.557Z,123.53
2018-12-26T19:50:05.249Z,130.47
2018-12-26T19:53:28.002Z,108.53
2018-12-26T19:56:32.347Z,95.37
2018-12-26T19:59:36.561Z,80.50
2018-12-26T20:02:40.625Z,67.77
2018-12-26T20:05:47.767Z,60.57
2018-12-26T20:08:51.876Z,56.63
2018-12-26T20:12:01.337Z,46.97
2018-12-26T20:15:05.452Z,39.93
2018-12-26T20:18:09.633Z,38.27
2018-12-26T20:21:13.315Z,34.30
2018-12-26T20:24:16.979Z,30.90
2018-12-26T20:27:20.663Z,17.23
2018-12-26T20:30:24.547Z,14.90
2018-12-26T20:33:28.518Z,14.10
2018-12-26T20:36:41.133Z,17.90
2018-12-26T20:39:44.914Z,14.30
2018-12-26T20:42:48.686Z,12.53
2018-12-26T20:45:52.326Z,10.80
2018-12-26T20:48:56.868Z,12.67
2018-12-26T20:52:00.796Z,8.33
2018-12-26T20:55:23.968Z,8.60
2018-12-26T20:58:28.764Z,7.17
2018-12-26T21:01:32.875Z,6.07
2018-12-26T21:04:36.979Z,6.87
2018-12-26T21:07:40.974Z,5.50
2018-12-26T21:10:44.918Z,6.20
2018-12-26T21:13:48.969Z,6.40
2018-12-26T21:16:55.077Z,6.47
2018-12-26T21:19:58.378Z,6.73
2018-12-26T21:23:02.579Z,4.90
2018-12-26T21:26:06.552Z,4.87
2018-12-26T21:32:33.651Z,5.83
2018-12-26T21:35:37.444Z,4.33
2018-12-26T21:38:41.230Z,4.30
2018-12-26T21:41:45.081Z,4.93
2018-12-26T21:44:49.467Z,5.77
2018-12-26T21:47:53.568Z,5.00
2018-12-26T21:50:58.192Z,7.37
2018-12-26T21:54:01.949Z,5.27
2018-12-26T22:00:36.547Z,5.60
2018-12-26T22:03:40.248Z,11.27
2018-12-26T22:06:44.169Z,5.50
2018-12-26T22:09:48.149Z,4.97
2018-12-26T22:12:52.222Z,7.70
2018-12-26T22:15:56.635Z,6.43
2018-12-26T22:19:00.440Z,7.13
2018-12-26T22:22:04.185Z,20.73
2018-12-26T22:25:27.602Z,21.57
2018-12-26T22:28:31.540Z,24.70
2018-12-26T22:31:36.223Z,23.47
2018-12-26T22:34:59.518Z,24.80
2018-12-26T22:38:03.561Z,17.23
2018-12-26T22:41:07.294Z,16.83
2018-12-26T22:44:11.269Z,18.20
2018-12-26T22:47:15.064Z,13.97
2018-12-26T22:50:19.040Z,13.60
2018-12-26T22:53:23.359Z,11.93
2018-12-26T22:56:27.680Z,13.73
2018-12-26T22:59:31.460Z,82.10
2018-12-26T23:02:54.908Z,85.43
2018-12-26T23:06:17.767Z,58.53
2018-12-26T23:09:22.045Z,52.30
2018-12-26T23:12:25.745Z,49.77
2018-12-26T23:15:29.752Z,49.87
2018-12-26T23:18:33.477Z,43.03
2018-12-26T23:21:56.864Z,39.40
2018-12-26T23:25:00.900Z,35.87
2018-12-26T23:28:23.821Z,31.40
2018-12-26T23:31:27.734Z,29.30
2018-12-26T23:34:51.470Z,30.70
2018-12-26T23:37:55.481Z,32.63
2018-12-26T23:40:59.500Z,26.97
2018-12-26T23:44:03.284Z,32.97
2018-12-26T23:47:07.284Z,24.53
2018-12-26T23:50:11.336Z,26.03
2018-12-26T23:53:14.962Z,23.30
2018-12-26T23:56:19.078Z,23.03
2018-12-26T23:59:23.378Z,21.47
